sensor_id;sensor_type;location;lat;lon;timestamp;pressure;altitude;pressure_sealevel;temperature;humidity
66385;BME280;53426;55.872;37.462;2023-03-04T00:01:18;97522.44;;;-1.06;72.91
66385;BME280;53426;55.872;37.462;2023-03-04T00:03:44;97521.19;;;-1.13;73.67
66385;BME280;53426;55.872;37.462;2023-03-04T00:06:10;97508.69;;;-1.08;73.56
66385;BME280;53426;55.872;37.462;2023-03-04T00:08:36;97501.34;;;-1.14;73.69
66385;BME280;53426;55.872;37.462;2023-03-04T00:11:02;97511.81;;;-1.03;74.13
66385;BME280;53426;55.872;37.462;2023-03-04T00:13:28;97494.09;;;-1.09;73.89
66385;BME280;53426;55.872;37.462;2023-03-04T00:15:54;97493.03;;;-1.07;73.64
66385;BME280;53426;55.872;37.462;2023-03-04T00:18:20;97502.38;;;-1.04;73.68
66385;BME280;53426;55.872;37.462;2023-03-04T00:20:46;97502.38;;;-1.04;73.90
66385;BME280;53426;55.872;37.462;2023-03-04T00:23:16;97501.94;;;-0.98;73.86
66385;BME280;53426;55.872;37.462;2023-03-04T00:25:42;97519.75;;;-0.81;73.26
66385;BME280;53426;55.872;37.462;2023-03-04T00:28:08;97508.00;;;-0.74;72.87
66385;BME280;53426;55.872;37.462;2023-03-04T00:30:34;97503.91;;;-0.65;72.59
66385;BME280;53426;55.872;37.462;2023-03-04T00:33:01;97500.81;;;-0.70;72.84
66385;BME280;53426;55.872;37.462;2023-03-04T00:35:27;97502.06;;;-0.76;72.25
66385;BME280;53426;55.872;37.462;2023-03-04T00:37:56;97494.59;;;-0.68;72.94
66385;BME280;53426;55.872;37.462;2023-03-04T00:40:21;97470.09;;;-0.76;72.76
66385;BME280;53426;55.872;37.462;2023-03-04T00:42:47;97492.88;;;-0.56;72.30
66385;BME280;53426;55.872;37.462;2023-03-04T00:45:13;97493.66;;;-0.43;72.51
66385;BME280;53426;55.872;37.462;2023-03-04T00:47:40;97483.25;;;-0.43;71.97
66385;BME280;53426;55.872;37.462;2023-03-04T00:50:06;97486.97;;;-0.34;72.02
66385;BME280;53426;55.872;37.462;2023-03-04T00:52:34;97468.28;;;-0.39;71.86
66385;BME280;53426;55.872;37.462;2023-03-04T00:55:01;97474.91;;;-0.35;71.51
66385;BME280;53426;55.872;37.462;2023-03-04T00:57:29;97483.25;;;-0.19;71.29
66385;BME280;53426;55.872;37.462;2023-03-04T00:59:56;97470.69;;;-0.25;71.49
66385;BME280;53426;55.872;37.462;2023-03-04T01:05:18;97473.81;;;-0.09;71.61
66385;BME280;53426;55.872;37.462;2023-03-04T01:07:45;97452.47;;;-0.25;70.84
66385;BME280;53426;55.872;37.462;2023-03-04T01:10:13;97479.06;;;-0.22;71.14
66385;BME280;53426;55.872;37.462;2023-03-04T01:12:41;97467.41;;;-0.16;71.23
66385;BME280;53426;55.872;37.462;2023-03-04T01:15:09;97440.75;;;-0.31;71.29
66385;BME280;53426;55.872;37.462;2023-03-04T01:17:35;97467.75;;;-0.21;71.35
66385;BME280;53426;55.872;37.462;2023-03-04T01:20:07;97468.66;;;-0.33;71.60
66385;BME280;53426;55.872;37.462;2023-03-04T01:22:34;97455.31;;;-0.28;71.37
66385;BME280;53426;55.872;37.462;2023-03-04T01:25:01;97447.63;;;-0.30;71.80
66385;BME280;53426;55.872;37.462;2023-03-04T01:27:29;97445.75;;;-0.28;71.07
66385;BME280;53426;55.872;37.462;2023-03-04T01:29:55;97460.19;;;-0.24;71.57
66385;BME280;53426;55.872;37.462;2023-03-04T01:32:22;97453.41;;;-0.26;71.61
66385;BME280;53426;55.872;37.462;2023-03-04T01:34:49;97464.78;;;-0.16;71.44
66385;BME280;53426;55.872;37.462;2023-03-04T01:37:15;97459.75;;;-0.07;71.08
66385;BME280;53426;55.872;37.462;2023-03-04T01:39:41;97430.22;;;-0.40;71.31
66385;BME280;53426;55.872;37.462;2023-03-04T01:42:26;97400.97;;;-0.55;71.72
66385;BME280;53426;55.872;37.462;2023-03-04T01:44:54;97451.88;;;-0.29;71.77
66385;BME280;53426;55.872;37.462;2023-03-04T01:47:21;97411.88;;;-0.50;71.59
66385;BME280;53426;55.872;37.462;2023-03-04T01:49:53;97429.88;;;-0.36;71.90
66385;BME280;53426;55.872;37.462;2023-03-04T01:52:19;97423.91;;;-0.49;72.41
66385;BME280;53426;55.872;37.462;2023-03-04T01:54:47;97418.88;;;-0.63;72.31
66385;BME280;53426;55.872;37.462;2023-03-04T01:57:22;97393.19;;;-0.79;72.48
66385;BME280;53426;55.872;37.462;2023-03-04T02:00:17;97418.94;;;-0.52;72.83
66385;BME280;53426;55.872;37.462;2023-03-04T02:02:45;97414.06;;;-0.57;72.61
66385;BME280;53426;55.872;37.462;2023-03-04T02:05:12;97411.97;;;-0.52;72.83
66385;BME280;53426;55.872;37.462;2023-03-04T02:07:41;97403.69;;;-0.57;72.82
66385;BME280;53426;55.872;37.462;2023-03-04T02:10:12;97387.81;;;-0.65;72.49
66385;BME280;53426;55.872;37.462;2023-03-04T02:12:43;97397.84;;;-0.71;73.18
66385;BME280;53426;55.872;37.462;2023-03-04T02:15:13;97345.50;;;-1.02;73.05
66385;BME280;53426;55.872;37.462;2023-03-04T02:17:39;97372.06;;;-0.98;72.97
66385;BME280;53426;55.872;37.462;2023-03-04T02:25:46;97357.19;;;-1.20;74.15
66385;BME280;53426;55.872;37.462;2023-03-04T02:28:15;97383.56;;;-1.13;74.01
66385;BME280;53426;55.872;37.462;2023-03-04T02:30:41;97396.72;;;-1.04;74.57
66385;BME280;53426;55.872;37.462;2023-03-04T02:33:14;97364.50;;;-1.01;74.34
66385;BME280;53426;55.872;37.462;2023-03-04T02:35:40;97378.28;;;-0.88;74.12
66385;BME280;53426;55.872;37.462;2023-03-04T02:38:07;97371.91;;;-0.84;73.72
66385;BME280;53426;55.872;37.462;2023-03-04T02:40:34;97329.22;;;-1.04;73.85
66385;BME280;53426;55.872;37.462;2023-03-04T02:43:00;97367.75;;;-0.87;73.97
66385;BME280;53426;55.872;37.462;2023-03-04T02:47:56;97369.31;;;-0.84;74.23
66385;BME280;53426;55.872;37.462;2023-03-04T02:50:22;97363.06;;;-0.81;73.85
66385;BME280;53426;55.872;37.462;2023-03-04T02:52:48;97357.50;;;-0.88;73.83
66385;BME280;53426;55.872;37.462;2023-03-04T02:55:14;97338.19;;;-0.97;73.72
66385;BME280;53426;55.872;37.462;2023-03-04T02:57:40;97350.41;;;-0.86;74.15
66385;BME280;53426;55.872;37.462;2023-03-04T03:00:07;97316.19;;;-1.15;73.91
66385;BME280;53426;55.872;37.462;2023-03-04T03:02:34;97342.31;;;-1.05;74.45
66385;BME280;53426;55.872;37.462;2023-03-04T03:04:59;97337.53;;;-0.88;74.22
66385;BME280;53426;55.872;37.462;2023-03-04T03:07:26;97339.31;;;-0.88;73.80
66385;BME280;53426;55.872;37.462;2023-03-04T03:09:51;97338.63;;;-0.79;73.83
66385;BME280;53426;55.872;37.462;2023-03-04T03:12:18;97327.19;;;-0.76;73.76
66385;BME280;53426;55.872;37.462;2023-03-04T03:14:43;97331.47;;;-0.64;73.87
66385;BME280;53426;55.872;37.462;2023-03-04T03:17:12;97331.13;;;-0.60;73.40
66385;BME280;53426;55.872;37.462;2023-03-04T03:19:38;97335.53;;;-0.49;73.28
66385;BME280;53426;55.872;37.462;2023-03-04T03:22:05;97319.94;;;-0.60;73.23
66385;BME280;53426;55.872;37.462;2023-03-04T03:24:31;97291.13;;;-0.81;73.02
66385;BME280;53426;55.872;37.462;2023-03-04T03:26:57;97327.69;;;-0.71;73.28
66385;BME280;53426;55.872;37.462;2023-03-04T03:29:23;97312.53;;;-0.77;73.32
66385;BME280;53426;55.872;37.462;2023-03-04T03:31:49;97309.22;;;-0.79;72.93
66385;BME280;53426;55.872;37.462;2023-03-04T03:34:14;97302.91;;;-0.99;73.09
66385;BME280;53426;55.872;37.462;2023-03-04T03:36:44;97319.31;;;-0.99;73.71
66385;BME280;53426;55.872;37.462;2023-03-04T03:39:10;97319.41;;;-1.00;73.88
66385;BME280;53426;55.872;37.462;2023-03-04T03:41:36;97289.63;;;-1.07;73.55
66385;BME280;53426;55.872;37.462;2023-03-04T03:44:02;97266.59;;;-1.12;73.95
66385;BME280;53426;55.872;37.462;2023-03-04T03:46:27;97309.81;;;-1.11;74.16
66385;BME280;53426;55.872;37.462;2023-03-04T03:48:54;97265.41;;;-1.43;73.72
66385;BME280;53426;55.872;37.462;2023-03-04T03:51:20;97290.66;;;-1.21;74.42
66385;BME280;53426;55.872;37.462;2023-03-04T03:53:46;97275.41;;;-1.25;74.48
66385;BME280;53426;55.872;37.462;2023-03-04T03:56:11;97299.63;;;-1.14;74.69
66385;BME280;53426;55.872;37.462;2023-03-04T03:58:40;97291.75;;;-1.12;74.66
66385;BME280;53426;55.872;37.462;2023-03-04T04:01:06;97263.84;;;-1.45;74.60
66385;BME280;53426;55.872;37.462;2023-03-04T04:03:38;97256.34;;;-1.61;75.74
66385;BME280;53426;55.872;37.462;2023-03-04T04:06:04;97254.50;;;-1.72;75.86
66385;BME280;53426;55.872;37.462;2023-03-04T04:08:36;97197.19;;;-2.16;76.24
66385;BME280;53426;55.872;37.462;2023-03-04T04:11:09;97226.09;;;-2.09;76.47
66385;BME280;53426;55.872;37.462;2023-03-04T04:16:50;97249.66;;;-1.76;76.94
66385;BME280;53426;55.872;37.462;2023-03-04T04:19:19;97220.00;;;-1.85;76.84
66385;BME280;53426;55.872;37.462;2023-03-04T04:21:46;97210.59;;;-1.86;76.64
66385;BME280;53426;55.872;37.462;2023-03-04T04:24:15;97226.22;;;-1.75;76.70
66385;BME280;53426;55.872;37.462;2023-03-04T04:26:44;97232.19;;;-1.74;76.41
66385;BME280;53426;55.872;37.462;2023-03-04T04:29:12;97243.84;;;-1.80;76.59
66385;BME280;53426;55.872;37.462;2023-03-04T04:31:38;97247.69;;;-1.85;77.33
66385;BME280;53426;55.872;37.462;2023-03-04T04:34:04;97250.81;;;-1.80;77.51
66385;BME280;53426;55.872;37.462;2023-03-04T04:36:31;97227.25;;;-1.77;77.42
66385;BME280;53426;55.872;37.462;2023-03-04T04:38:56;97230.34;;;-1.72;76.99
66385;BME280;53426;55.872;37.462;2023-03-04T04:41:30;97215.00;;;-1.75;77.19
66385;BME280;53426;55.872;37.462;2023-03-04T04:43:56;97233.84;;;-1.73;77.16
66385;BME280;53426;55.872;37.462;2023-03-04T04:46:22;97241.72;;;-1.62;77.37
66385;BME280;53426;55.872;37.462;2023-03-04T04:48:49;97225.94;;;-1.59;77.23
66385;BME280;53426;55.872;37.462;2023-03-04T04:51:15;97228.44;;;-1.46;77.20
66385;BME280;53426;55.872;37.462;2023-03-04T04:53:41;97232.88;;;-1.36;77.06
66385;BME280;53426;55.872;37.462;2023-03-04T04:56:19;97235.31;;;-1.21;77.01
66385;BME280;53426;55.872;37.462;2023-03-04T04:58:48;97235.41;;;-1.23;76.36
66385;BME280;53426;55.872;37.462;2023-03-04T05:01:15;97239.31;;;-1.17;76.29
66385;BME280;53426;55.872;37.462;2023-03-04T05:03:41;97238.88;;;-1.11;76.05
66385;BME280;53426;55.872;37.462;2023-03-04T05:06:08;97213.72;;;-1.46;75.99
66385;BME280;53426;55.872;37.462;2023-03-04T05:08:35;97223.59;;;-1.51;76.68
66385;BME280;53426;55.872;37.462;2023-03-04T05:11:02;97228.69;;;-1.25;76.16
66385;BME280;53426;55.872;37.462;2023-03-04T05:13:29;97221.22;;;-1.30;75.96
66385;BME280;53426;55.872;37.462;2023-03-04T05:15:55;97236.56;;;-1.27;76.17
66385;BME280;53426;55.872;37.462;2023-03-04T05:18:22;97222.91;;;-1.18;75.77
66385;BME280;53426;55.872;37.462;2023-03-04T05:20:56;97213.69;;;-1.22;75.93
66385;BME280;53426;55.872;37.462;2023-03-04T05:23:23;97233.13;;;-1.04;75.43
66385;BME280;53426;55.872;37.462;2023-03-04T05:25:49;97206.53;;;-1.07;75.46
66385;BME280;53426;55.872;37.462;2023-03-04T05:28:17;97217.31;;;-1.01;75.24
66385;BME280;53426;55.872;37.462;2023-03-04T05:30:45;97208.09;;;-1.05;75.22
66385;BME280;53426;55.872;37.462;2023-03-04T05:33:12;97210.94;;;-0.97;75.19
66385;BME280;53426;55.872;37.462;2023-03-04T05:35:39;97169.34;;;-1.08;74.69
66385;BME280;53426;55.872;37.462;2023-03-04T05:38:07;97226.66;;;-0.76;74.59
66385;BME280;53426;55.872;37.462;2023-03-04T05:40:38;97162.84;;;-1.13;74.83
66385;BME280;53426;55.872;37.462;2023-03-04T05:43:09;97219.84;;;-0.77;74.80
66385;BME280;53426;55.872;37.462;2023-03-04T05:45:36;97196.91;;;-0.94;74.79
66385;BME280;53426;55.872;37.462;2023-03-04T05:48:04;97216.06;;;-0.73;74.51
66385;BME280;53426;55.872;37.462;2023-03-04T05:50:31;97211.09;;;-0.76;74.13
66385;BME280;53426;55.872;37.462;2023-03-04T05:52:57;97211.09;;;-0.54;74.46
66385;BME280;53426;55.872;37.462;2023-03-04T05:55:26;97202.84;;;-0.59;74.14
66385;BME280;53426;55.872;37.462;2023-03-04T05:58:00;97203.78;;;-0.49;74.05
66385;BME280;53426;55.872;37.462;2023-03-04T06:00:27;97201.66;;;-0.44;73.84
66385;BME280;53426;55.872;37.462;2023-03-04T06:02:53;97198.00;;;-0.52;73.68
66385;BME280;53426;55.872;37.462;2023-03-04T06:05:19;97183.25;;;-0.63;73.65
66385;BME280;53426;55.872;37.462;2023-03-04T06:07:46;97200.03;;;-0.45;74.00
66385;BME280;53426;55.872;37.462;2023-03-04T06:10:15;97196.25;;;-0.40;73.63
66385;BME280;53426;55.872;37.462;2023-03-04T06:12:42;97193.63;;;-0.29;73.53
66385;BME280;53426;55.872;37.462;2023-03-04T06:15:08;97192.22;;;-0.22;73.41
66385;BME280;53426;55.872;37.462;2023-03-04T06:17:37;97191.03;;;-0.18;72.91
66385;BME280;53426;55.872;37.462;2023-03-04T06:20:05;97169.63;;;-0.22;72.93
66385;BME280;53426;55.872;37.462;2023-03-04T06:22:32;97184.28;;;-0.10;72.57
66385;BME280;53426;55.872;37.462;2023-03-04T06:24:59;97162.78;;;-0.23;72.74
66385;BME280;53426;55.872;37.462;2023-03-04T06:27:24;97183.44;;;-0.10;72.75
66385;BME280;53426;55.872;37.462;2023-03-04T06:29:51;97182.28;;;-0.17;73.12
66385;BME280;53426;55.872;37.462;2023-03-04T06:32:17;97157.13;;;-0.39;72.88
66385;BME280;53426;55.872;37.462;2023-03-04T06:34:44;97169.16;;;-0.27;73.46
66385;BME280;53426;55.872;37.462;2023-03-04T06:37:09;97175.91;;;-0.13;73.10
66385;BME280;53426;55.872;37.462;2023-03-04T06:39:35;97152.75;;;-0.27;72.71
66385;BME280;53426;55.872;37.462;2023-03-04T06:42:01;97147.41;;;-0.26;72.86
66385;BME280;53426;55.872;37.462;2023-03-04T06:44:30;97154.72;;;-0.09;72.80
66385;BME280;53426;55.872;37.462;2023-03-04T06:46:56;97147.28;;;-0.13;72.59
66385;BME280;53426;55.872;37.462;2023-03-04T06:49:21;97152.50;;;-0.13;72.65
66385;BME280;53426;55.872;37.462;2023-03-04T06:51:52;97149.88;;;-0.13;73.04
66385;BME280;53426;55.872;37.462;2023-03-04T06:54:19;97128.84;;;-0.21;72.79
66385;BME280;53426;55.872;37.462;2023-03-04T06:56:46;97119.88;;;-0.17;72.54
66385;BME280;53426;55.872;37.462;2023-03-04T06:59:15;97106.81;;;0.05;71.58
66385;BME280;53426;55.872;37.462;2023-03-04T07:01:41;97131.78;;;0.28;71.01
66385;BME280;53426;55.872;37.462;2023-03-04T07:04:08;97135.56;;;0.35;70.85
66385;BME280;53426;55.872;37.462;2023-03-04T07:06:34;97131.66;;;0.30;70.81
66385;BME280;53426;55.872;37.462;2023-03-04T07:09:00;97124.34;;;0.24;71.47
66385;BME280;53426;55.872;37.462;2023-03-04T07:11:25;97115.78;;;0.33;71.49
66385;BME280;53426;55.872;37.462;2023-03-04T07:13:51;97103.75;;;0.32;70.88
66385;BME280;53426;55.872;37.462;2023-03-04T07:16:20;97118.06;;;0.58;70.70
66385;BME280;53426;55.872;37.462;2023-03-04T07:18:48;97092.59;;;0.62;70.20
66385;BME280;53426;55.872;37.462;2023-03-04T07:21:18;97109.19;;;0.81;70.65
66385;BME280;53426;55.872;37.462;2023-03-04T07:23:44;97083.13;;;0.81;70.12
66385;BME280;53426;55.872;37.462;2023-03-04T07:26:11;97088.41;;;0.91;69.59
66385;BME280;53426;55.872;37.462;2023-03-04T07:28:37;97088.97;;;1.25;69.79
66385;BME280;53426;55.872;37.462;2023-03-04T07:31:09;97083.41;;;1.49;68.75
66385;BME280;53426;55.872;37.462;2023-03-04T07:33:40;97085.03;;;1.99;67.42
66385;BME280;53426;55.872;37.462;2023-03-04T07:36:07;97043.41;;;2.07;66.67
66385;BME280;53426;55.872;37.462;2023-03-04T07:38:33;97071.56;;;2.52;64.99
66385;BME280;53426;55.872;37.462;2023-03-04T07:41:23;97057.72;;;2.42;65.24
66385;BME280;53426;55.872;37.462;2023-03-04T07:43:56;97078.84;;;2.68;65.40
66385;BME280;53426;55.872;37.462;2023-03-04T07:46:22;97044.25;;;2.27;64.13
66385;BME280;53426;55.872;37.462;2023-03-04T07:48:48;97074.22;;;2.33;65.05
66385;BME280;53426;55.872;37.462;2023-03-04T07:51:19;97055.25;;;2.12;65.42
66385;BME280;53426;55.872;37.462;2023-03-04T07:53:48;97068.56;;;1.89;65.90
66385;BME280;53426;55.872;37.462;2023-03-04T07:56:17;97066.91;;;1.79;65.81
66385;BME280;53426;55.872;37.462;2023-03-04T07:58:45;97069.84;;;1.45;66.92
66385;BME280;53426;55.872;37.462;2023-03-04T08:01:13;97068.13;;;1.25;67.24
66385;BME280;53426;55.872;37.462;2023-03-04T08:03:40;97042.63;;;0.98;67.94
66385;BME280;53426;55.872;37.462;2023-03-04T08:06:08;97068.34;;;1.12;68.15
66385;BME280;53426;55.872;37.462;2023-03-04T08:08:34;97024.22;;;0.90;68.10
66385;BME280;53426;55.872;37.462;2023-03-04T08:11:10;97038.91;;;0.91;68.27
66385;BME280;53426;55.872;37.462;2023-03-04T08:13:36;97048.72;;;1.08;68.35
66385;BME280;53426;55.872;37.462;2023-03-04T08:16:03;97054.09;;;1.16;68.14
66385;BME280;53426;55.872;37.462;2023-03-04T08:18:29;97049.81;;;1.15;67.88
66385;BME280;53426;55.872;37.462;2023-03-04T08:20:54;97051.00;;;1.02;68.30
66385;BME280;53426;55.872;37.462;2023-03-04T08:23:21;97023.69;;;0.96;68.30
66385;BME280;53426;55.872;37.462;2023-03-04T08:25:48;97037.63;;;1.25;68.24
66385;BME280;53426;55.872;37.462;2023-03-04T08:28:14;97025.84;;;1.31;67.58
66385;BME280;53426;55.872;37.462;2023-03-04T08:30:41;97005.00;;;1.31;67.28
66385;BME280;53426;55.872;37.462;2023-03-04T08:33:09;97006.25;;;1.27;66.96
66385;BME280;53426;55.872;37.462;2023-03-04T08:35:37;97028.25;;;1.44;66.90
66385;BME280;53426;55.872;37.462;2023-03-04T08:38:03;97024.78;;;1.34;67.57
66385;BME280;53426;55.872;37.462;2023-03-04T08:40:30;97015.38;;;1.12;66.95
66385;BME280;53426;55.872;37.462;2023-03-04T08:42:56;97026.53;;;1.23;67.62
66385;BME280;53426;55.872;37.462;2023-03-04T08:45:21;97026.22;;;1.07;67.93
66385;BME280;53426;55.872;37.462;2023-03-04T08:47:47;96983.38;;;1.00;67.18
66385;BME280;53426;55.872;37.462;2023-03-04T08:50:13;97023.94;;;1.23;67.10
66385;BME280;53426;55.872;37.462;2023-03-04T08:59:23;96881.13;;;1.27;65.29
66385;BME280;53426;55.872;37.462;2023-03-04T09:01:48;96943.53;;;2.25;63.72
66385;BME280;53426;55.872;37.462;2023-03-04T09:04:16;96905.81;;;2.83;61.03
66385;BME280;53426;55.872;37.462;2023-03-04T09:06:42;96920.09;;;3.34;60.76
66385;BME280;53426;55.872;37.462;2023-03-04T09:09:08;96932.28;;;3.61;59.62
66385;BME280;53426;55.872;37.462;2023-03-04T09:11:34;96980.22;;;3.61;60.53
66385;BME280;53426;55.872;37.462;2023-03-04T09:14:02;96986.97;;;3.64;60.35
66385;BME280;53426;55.872;37.462;2023-03-04T09:16:40;96970.81;;;3.86;60.39
66385;BME280;53426;55.872;37.462;2023-03-04T09:19:06;96937.47;;;4.57;58.19
66385;BME280;53426;55.872;37.462;2023-03-04T09:21:44;96905.97;;;4.49;58.40
66385;BME280;53426;55.872;37.462;2023-03-04T09:24:09;96904.38;;;4.05;58.66
66385;BME280;53426;55.872;37.462;2023-03-04T09:26:35;96936.78;;;3.68;59.39
66385;BME280;53426;55.872;37.462;2023-03-04T09:29:02;96961.34;;;3.40;60.88
66385;BME280;53426;55.872;37.462;2023-03-04T09:31:28;96916.31;;;3.01;61.04
66385;BME280;53426;55.872;37.462;2023-03-04T09:33:58;96905.31;;;2.70;60.78
66385;BME280;53426;55.872;37.462;2023-03-04T09:36:32;96924.19;;;2.64;61.79
66385;BME280;53426;55.872;37.462;2023-03-04T09:39:08;96887.31;;;2.40;62.33
66385;BME280;53426;55.872;37.462;2023-03-04T09:41:48;96799.59;;;1.73;62.12
66385;BME280;53426;55.872;37.462;2023-03-04T09:44:40;96908.06;;;2.69;62.39
66385;BME280;53426;55.872;37.462;2023-03-04T09:47:14;96792.56;;;1.83;61.95
66385;BME280;53426;55.872;37.462;2023-03-04T09:49:44;96753.25;;;1.57;62.82
66385;BME280;53426;55.872;37.462;2023-03-04T09:56:01;96870.78;;;3.39;59.40
66385;BME280;53426;55.872;37.462;2023-03-04T10:05:02;96791.06;;;2.72;58.17
66385;BME280;53426;55.872;37.462;2023-03-04T10:07:38;96831.22;;;2.44;59.96
66385;BME280;53426;55.872;37.462;2023-03-04T10:10:33;96865.03;;;2.45;61.19
66385;BME280;53426;55.872;37.462;2023-03-04T10:13:03;96773.78;;;1.80;60.43
66385;BME280;53426;55.872;37.462;2023-03-04T10:15:45;96877.72;;;2.58;61.05
66385;BME280;53426;55.872;37.462;2023-03-04T10:18:37;96845.44;;;2.59;60.67
66385;BME280;53426;55.872;37.462;2023-03-04T10:21:16;96854.78;;;2.25;61.58
66385;BME280;53426;55.872;37.462;2023-03-04T10:23:50;96725.16;;;1.42;61.43
66385;BME280;53426;55.872;37.462;2023-03-04T10:26:20;96721.81;;;1.49;61.66
66385;BME280;53426;55.872;37.462;2023-03-04T10:28:48;96829.19;;;2.38;60.30
66385;BME280;53426;55.872;37.462;2023-03-04T10:31:36;96826.75;;;2.54;60.42
66385;BME280;53426;55.872;37.462;2023-03-04T10:34:03;96820.06;;;2.69;59.76
66385;BME280;53426;55.872;37.462;2023-03-04T10:36:43;96820.59;;;2.73;60.31
66385;BME280;53426;55.872;37.462;2023-03-04T10:39:37;96818.94;;;2.99;59.45
66385;BME280;53426;55.872;37.462;2023-03-04T10:45:59;96783.50;;;2.69;59.59
66385;BME280;53426;55.872;37.462;2023-03-04T10:48:30;96776.56;;;2.60;60.31
66385;BME280;53426;55.872;37.462;2023-03-04T10:57:03;96730.97;;;2.00;62.25
66385;BME280;53426;55.872;37.462;2023-03-04T10:59:39;96760.09;;;2.32;62.18
66385;BME280;53426;55.872;37.462;2023-03-04T11:04:42;96767.25;;;2.75;61.65
66385;BME280;53426;55.872;37.462;2023-03-04T11:07:16;96761.41;;;2.81;61.55
66385;BME280;53426;55.872;37.462;2023-03-04T11:09:43;96754.03;;;2.32;62.23
66385;BME280;53426;55.872;37.462;2023-03-04T11:12:14;96760.31;;;2.12;63.10
66385;BME280;53426;55.872;37.462;2023-03-04T11:14:47;96763.69;;;1.94;63.81
66385;BME280;53426;55.872;37.462;2023-03-04T11:17:38;96762.50;;;2.16;63.54
66385;BME280;53426;55.872;37.462;2023-03-04T11:20:13;96758.53;;;2.12;63.31
66385;BME280;53426;55.872;37.462;2023-03-04T11:23:48;96586.94;;;1.14;63.53
66385;BME280;53426;55.872;37.462;2023-03-04T11:26:27;96675.09;;;1.65;63.38
66385;BME280;53426;55.872;37.462;2023-03-04T11:32:08;96724.63;;;2.02;62.84
66385;BME280;53426;55.872;37.462;2023-03-04T11:38:22;96719.13;;;2.33;63.17
66385;BME280;53426;55.872;37.462;2023-03-04T11:40:56;96748.22;;;2.10;63.72
66385;BME280;53426;55.872;37.462;2023-03-04T11:56:43;96676.59;;;1.21;68.71
66385;BME280;53426;55.872;37.462;2023-03-04T12:11:09;96680.63;;;1.53;71.79
66385;BME280;53426;55.872;37.462;2023-03-04T12:16:51;96678.28;;;1.59;73.74
66385;BME280;53426;55.872;37.462;2023-03-04T12:25:23;96649.81;;;1.39;74.15
66385;BME280;53426;55.872;37.462;2023-03-04T12:33:45;96622.88;;;1.11;74.54
66385;BME280;53426;55.872;37.462;2023-03-04T12:41:59;96646.72;;;1.16;75.47
66385;BME280;53426;55.872;37.462;2023-03-04T12:44:37;96644.53;;;1.11;75.25
66385;BME280;53426;55.872;37.462;2023-03-04T12:47:22;96631.81;;;1.08;75.79
66385;BME280;53426;55.872;37.462;2023-03-04T12:50:15;96631.81;;;0.99;75.41
66385;BME280;53426;55.872;37.462;2023-03-04T12:52:52;96640.72;;;1.06;75.99
66385;BME280;53426;55.872;37.462;2023-03-04T12:55:29;96631.03;;;0.98;76.10
66385;BME280;53426;55.872;37.462;2023-03-04T12:57:57;96576.25;;;0.71;76.08
66385;BME280;53426;55.872;37.462;2023-03-04T13:03:20;96612.91;;;0.97;76.82
66385;BME280;53426;55.872;37.462;2023-03-04T13:16:51;96595.09;;;0.92;76.78
66385;BME280;53426;55.872;37.462;2023-03-04T13:19:55;96585.78;;;0.90;76.94
66385;BME280;53426;55.872;37.462;2023-03-04T13:35:59;96561.69;;;0.78;77.58
66385;BME280;53426;55.872;37.462;2023-03-04T13:41:12;96559.78;;;0.80;78.03
66385;BME280;53426;55.872;37.462;2023-03-04T13:43:53;96545.25;;;0.68;77.91
66385;BME280;53426;55.872;37.462;2023-03-04T13:56:43;96530.72;;;0.75;78.31
66385;BME280;53426;55.872;37.462;2023-03-04T13:59:20;96533.72;;;0.80;78.56
66385;BME280;53426;55.872;37.462;2023-03-04T14:04:33;96522.06;;;0.84;78.79
66385;BME280;53426;55.872;37.462;2023-03-04T14:07:02;96514.53;;;0.81;78.55
66385;BME280;53426;55.872;37.462;2023-03-04T14:09:34;96462.59;;;0.43;78.70
66385;BME280;53426;55.872;37.462;2023-03-04T14:12:13;96502.91;;;0.66;78.86
66385;BME280;53426;55.872;37.462;2023-03-04T14:14:52;96498.53;;;0.66;78.69
66385;BME280;53426;55.872;37.462;2023-03-04T14:17:21;96508.13;;;0.75;79.36
66385;BME280;53426;55.872;37.462;2023-03-04T14:19:48;96501.97;;;0.67;78.94
66385;BME280;53426;55.872;37.462;2023-03-04T14:22:29;96476.38;;;0.53;78.90
66385;BME280;53426;55.872;37.462;2023-03-04T14:25:06;96497.56;;;0.67;79.04
66385;BME280;53426;55.872;37.462;2023-03-04T14:27:45;96488.84;;;0.59;79.58
66385;BME280;53426;55.872;37.462;2023-03-04T14:30:24;96473.34;;;0.57;79.42
66385;BME280;53426;55.872;37.462;2023-03-04T14:36:15;96446.16;;;0.42;79.84
66385;BME280;53426;55.872;37.462;2023-03-04T14:39:29;96463.94;;;0.47;79.81
66385;BME280;53426;55.872;37.462;2023-03-04T14:42:00;96471.06;;;0.54;79.62
66385;BME280;53426;55.872;37.462;2023-03-04T14:44:41;96464.34;;;0.52;79.68
66385;BME280;53426;55.872;37.462;2023-03-04T14:49:41;96462.69;;;0.51;80.35
66385;BME280;53426;55.872;37.462;2023-03-04T14:55:00;96459.00;;;0.53;80.27
66385;BME280;53426;55.872;37.462;2023-03-04T14:57:30;96459.66;;;0.55;80.47
66385;BME280;53426;55.872;37.462;2023-03-04T15:02:49;96457.75;;;0.57;80.30
66385;BME280;53426;55.872;37.462;2023-03-04T15:05:29;96460.34;;;0.57;80.46
66385;BME280;53426;55.872;37.462;2023-03-04T15:08:04;96437.66;;;0.40;80.76
66385;BME280;53426;55.872;37.462;2023-03-04T15:10:36;96448.19;;;0.48;81.08
66385;BME280;53426;55.872;37.462;2023-03-04T15:13:08;96410.72;;;0.31;80.78
66385;BME280;53426;55.872;37.462;2023-03-04T15:15:43;96442.81;;;0.50;81.14
66385;BME280;53426;55.872;37.462;2023-03-04T15:18:26;96435.69;;;0.52;81.21
66385;BME280;53426;55.872;37.462;2023-03-04T15:21:01;96425.84;;;0.46;81.16
66385;BME280;53426;55.872;37.462;2023-03-04T15:23:28;96424.31;;;0.53;80.66
66385;BME280;53426;55.872;37.462;2023-03-04T15:25:59;96414.78;;;0.44;80.99
66385;BME280;53426;55.872;37.462;2023-03-04T15:28:35;96412.69;;;0.47;81.41
66385;BME280;53426;55.872;37.462;2023-03-04T15:31:03;96424.72;;;0.58;81.43
66385;BME280;53426;55.872;37.462;2023-03-04T15:33:29;96421.16;;;0.59;81.89
66385;BME280;53426;55.872;37.462;2023-03-04T15:36:00;96393.53;;;0.48;81.81
66385;BME280;53426;55.872;37.462;2023-03-04T15:38:27;96417.59;;;0.60;81.76
66385;BME280;53426;55.872;37.462;2023-03-04T15:40:54;96408.84;;;0.51;81.43